createdAt,value
2022-12-15T06:47:49.830Z,88.93
2022-12-15T06:50:17.253Z,88.97
2022-12-15T06:52:44.559Z,88.40
2022-12-15T06:55:11.897Z,94.97
2022-12-15T06:57:39.172Z,87.43
2022-12-15T07:00:06.988Z,89.83
2022-12-15T07:02:34.665Z,91.23
2022-12-15T07:05:02.743Z,92.80
2022-12-15T07:07:30.088Z,89.87
2022-12-15T07:09:57.657Z,94.37
2022-12-15T07:12:25.115Z,90.30
2022-12-15T07:14:53.712Z,95.10
2022-12-15T07:17:21.371Z,92.20
2022-12-15T07:19:48.675Z,92.23
2022-12-15T07:22:15.994Z,94.67
2022-12-15T07:24:43.686Z,90.90
2022-12-15T07:27:10.989Z,91.83
2022-12-15T07:29:38.276Z,93.57
2022-12-15T07:32:05.748Z,87.20
2022-12-15T07:34:33.181Z,89.53
2022-12-15T07:37:00.503Z,92.87
2022-12-15T07:39:28.224Z,91.23
2022-12-15T07:41:56.000Z,91.40
2022-12-15T07:44:23.271Z,93.07
2022-12-15T07:46:50.770Z,93.30
2022-12-15T07:49:18.266Z,90.57
2022-12-15T07:51:45.811Z,86.60
2022-12-15T07:54:15.581Z,94.17
2022-12-15T07:56:42.999Z,78.23
2022-12-15T07:59:10.294Z,87.30
2022-12-15T08:01:37.840Z,86.87
2022-12-15T08:04:05.497Z,87.60
2022-12-15T08:06:33.082Z,85.03
2022-12-15T08:09:00.535Z,82.77
2022-12-15T08:11:28.239Z,77.87
2022-12-15T08:14:04.768Z,78.50
2022-12-15T08:16:36.481Z,77.50
2022-12-15T08:19:05.436Z,77.53
2022-12-15T08:21:33.896Z,81.00
2022-12-15T08:24:01.300Z,79.20
2022-12-15T08:26:31.124Z,79.77
2022-12-15T08:29:24.350Z,75.57
2022-12-15T08:31:48.744Z,73.57
2022-12-15T08:34:16.157Z,79.07
2022-12-15T08:36:43.522Z,83.90
2022-12-15T08:39:10.896Z,79.83
2022-12-15T08:41:38.387Z,83.83
2022-12-15T08:44:05.749Z,83.10
2022-12-15T08:46:34.311Z,77.80
2022-12-15T08:49:02.554Z,78.37
2022-12-15T08:51:30.656Z,80.27
2022-12-15T08:53:58.648Z,81.00
2022-12-15T08:56:26.605Z,73.77
2022-12-15T08:58:58.332Z,81.80
2022-12-15T09:01:27.009Z,76.87
2022-12-15T09:03:55.240Z,75.10
2022-12-15T09:06:24.232Z,70.17
2022-12-15T09:08:54.322Z,72.33
2022-12-15T09:11:21.928Z,72.53
2022-12-15T09:13:49.253Z,69.90
2022-12-15T09:16:17.468Z,70.07
2022-12-15T09:18:49.419Z,88.20
2022-12-15T09:21:17.385Z,77.53
2022-12-15T09:23:47.861Z,84.60
2022-12-15T09:26:16.331Z,75.37
2022-12-15T09:28:43.934Z,78.90
2022-12-15T09:31:13.049Z,91.87
2022-12-15T09:33:41.102Z,100.80
2022-12-15T09:36:08.980Z,95.50
2022-12-15T09:38:38.293Z,91.60
2022-12-15T09:41:25.563Z,84.37
2022-12-15T09:44:00.870Z,99.30
2022-12-15T09:46:35.239Z,90.57
2022-12-15T09:49:04.747Z,93.50
2022-12-15T09:51:35.642Z,88.27
2022-12-15T09:54:03.305Z,82.13
2022-12-15T09:56:40.135Z,86.60
2022-12-15T09:59:19.617Z,89.77
2022-12-15T10:02:14.598Z,83.43
2022-12-15T10:04:52.910Z,100.60
2022-12-15T10:07:42.010Z,97.67
2022-12-15T10:10:18.358Z,100.00
2022-12-15T10:15:55.216Z,97.73
2022-12-15T10:19:01.851Z,88.20
2022-12-15T10:21:32.160Z,73.33
2022-12-15T10:24:03.300Z,64.93
2022-12-15T10:26:32.868Z,70.53
2022-12-15T10:29:02.954Z,66.87
2022-12-15T10:31:33.242Z,66.87
2022-12-15T10:34:10.254Z,64.63
2022-12-15T10:36:37.756Z,67.73
2022-12-15T10:39:05.175Z,75.83
2022-12-15T10:41:33.939Z,72.00
2022-12-15T10:44:02.848Z,70.60
2022-12-15T10:46:32.959Z,77.77
2022-12-15T10:49:17.674Z,80.90
2022-12-15T10:51:49.708Z,81.30
2022-12-15T10:54:18.460Z,78.97
2022-12-15T10:56:52.081Z,80.73
2022-12-15T10:59:32.760Z,88.00
2022-12-15T11:02:23.981Z,87.90
2022-12-15T11:04:56.704Z,94.03
2022-12-15T11:07:29.530Z,100.10
2022-12-15T11:10:00.754Z,107.37
2022-12-15T11:12:50.481Z,119.53
2022-12-15T11:15:24.351Z,97.93
2022-12-15T11:17:58.637Z,98.83
2022-12-15T11:20:31.839Z,91.80
2022-12-15T11:23:02.615Z,102.97
2022-12-15T11:25:37.433Z,99.90
2022-12-15T11:28:07.959Z,104.27
2022-12-15T11:30:39.190Z,94.43
2022-12-15T11:33:08.913Z,97.30
2022-12-15T11:35:48.927Z,102.47
2022-12-15T11:38:46.429Z,93.40
2022-12-15T11:41:23.884Z,94.93
2022-12-15T11:43:58.827Z,107.00
2022-12-15T11:46:31.733Z,106.13
2022-12-15T11:49:04.895Z,108.13
2022-12-15T11:51:53.635Z,111.07
2022-12-15T11:54:40.012Z,112.77
2022-12-15T11:57:29.973Z,105.00
2022-12-15T12:00:02.667Z,112.77
2022-12-15T12:02:57.856Z,121.80
2022-12-15T12:05:34.824Z,115.43
2022-12-15T12:08:05.175Z,122.90
2022-12-15T12:10:40.848Z,122.57
2022-12-15T12:13:12.129Z,103.07
2022-12-15T12:15:51.287Z,114.27
2022-12-15T12:18:32.290Z,102.43
2022-12-15T12:21:03.527Z,121.70
2022-12-15T12:23:49.913Z,107.47
2022-12-15T12:26:21.264Z,112.97
2022-12-15T12:28:58.329Z,124.80
2022-12-15T12:31:34.587Z,118.93
2022-12-15T12:34:04.477Z,133.00
2022-12-15T12:36:31.823Z,114.77
2022-12-15T12:38:59.385Z,133.97
2022-12-15T12:41:47.349Z,133.80
2022-12-15T12:44:41.593Z,134.10
2022-12-15T12:47:27.735Z,146.50
2022-12-15T12:49:57.924Z,130.10
2022-12-15T12:52:35.754Z,137.50
2022-12-15T12:55:19.959Z,125.13
2022-12-15T12:57:50.099Z,104.57
2022-12-15T13:00:22.751Z,109.53
2022-12-15T13:02:54.085Z,122.57
2022-12-15T13:05:31.353Z,110.17
2022-12-15T13:08:13.657Z,123.97
2022-12-15T13:10:42.401Z,122.20
2022-12-15T13:13:12.722Z,119.00
2022-12-15T13:15:45.754Z,123.53
2022-12-15T13:18:23.050Z,122.93
2022-12-15T13:20:51.492Z,119.73
2022-12-15T13:23:24.864Z,117.33
2022-12-15T13:25:59.051Z,126.37
2022-12-15T13:28:28.309Z,120.73
2022-12-15T13:31:22.805Z,116.13
2022-12-15T13:33:50.324Z,102.17
2022-12-15T13:36:40.381Z,110.63
2022-12-15T13:39:13.519Z,99.93
2022-12-15T13:42:15.156Z,96.90
2022-12-15T13:44:52.027Z,101.57
2022-12-15T13:47:19.434Z,107.03
2022-12-15T13:50:00.853Z,97.07
2022-12-15T13:53:16.683Z,101.50
2022-12-15T13:55:27.643Z,105.83
2022-12-15T13:57:57.826Z,108.83
2022-12-15T14:00:25.383Z,115.63
2022-12-15T14:02:56.908Z,106.80
2022-12-15T14:05:26.206Z,108.30
2022-12-15T14:07:54.965Z,112.30
2022-12-15T14:10:28.834Z,109.50
2022-12-15T14:12:59.075Z,112.87
2022-12-15T14:15:32.664Z,107.10
2022-12-15T14:18:01.490Z,100.13
2022-12-15T14:20:30.914Z,100.67
2022-12-15T14:22:58.670Z,101.63
2022-12-15T14:25:29.516Z,94.67
2022-12-15T14:27:57.610Z,100.57
2022-12-15T14:30:33.123Z,104.83
2022-12-15T14:33:07.877Z,105.67
2022-12-15T14:35:50.077Z,95.30
2022-12-15T14:38:18.910Z,98.43
2022-12-15T14:40:47.185Z,105.33
2022-12-15T14:43:24.596Z,100.43
2022-12-15T14:45:55.229Z,103.83
2022-12-15T14:48:45.089Z,90.23
2022-12-15T14:51:14.185Z,94.07
2022-12-15T14:53:42.928Z,93.10
2022-12-15T14:56:14.764Z,91.77
2022-12-15T14:58:42.304Z,91.83
2022-12-15T15:01:23.043Z,104.87
2022-12-15T15:03:04.319Z,114.83
2022-12-15T15:03:57.133Z,104.50
2022-12-15T15:06:28.530Z,101.63
2022-12-15T15:08:56.145Z,103.97
2022-12-15T15:11:29.783Z,99.17
2022-12-15T15:13:59.149Z,100.10
2022-12-15T15:16:26.921Z,95.63
2022-12-15T15:18:55.930Z,102.63
2022-12-15T15:21:24.863Z,92.80
2022-12-15T15:24:10.695Z,93.43
2022-12-15T15:26:38.111Z,95.73
2022-12-15T15:29:25.762Z,102.17
2022-12-15T15:32:05.486Z,94.07
2022-12-15T15:34:33.672Z,96.63
2022-12-15T15:37:02.609Z,84.77
2022-12-15T15:39:29.962Z,88.33
2022-12-15T15:41:57.345Z,91.20
2022-12-15T15:44:24.785Z,81.13
2022-12-15T15:46:52.889Z,85.30
2022-12-15T15:49:21.715Z,85.07
2022-12-15T15:51:49.501Z,89.63
2022-12-15T15:54:23.064Z,90.00
2022-12-15T15:56:50.420Z,92.73
2022-12-15T15:59:20.893Z,97.60
2022-12-15T16:01:53.733Z,85.27
2022-12-15T16:04:21.338Z,92.27
2022-12-15T16:06:49.716Z,88.03
2022-12-15T16:09:17.616Z,96.47
2022-12-15T16:11:46.269Z,97.10
2022-12-15T16:14:14.346Z,101.83
2022-12-15T16:16:42.064Z,95.77
2022-12-15T16:19:09.625Z,97.03
2022-12-15T16:21:37.293Z,101.77
2022-12-15T16:24:14.126Z,94.67
2022-12-15T16:26:45.238Z,97.07
2022-12-15T16:29:16.640Z,82.60
2022-12-15T16:31:45.742Z,92.13
2022-12-15T16:34:14.120Z,95.13
2022-12-15T16:36:41.567Z,95.50
2022-12-15T16:39:24.338Z,98.80
2022-12-15T16:41:53.808Z,92.93
2022-12-15T16:44:21.359Z,84.10
2022-12-15T16:46:48.707Z,89.50
2022-12-15T16:49:16.155Z,85.23
2022-12-15T16:51:45.112Z,82.40
2022-12-15T16:54:25.169Z,88.47
2022-12-15T16:56:53.771Z,94.43
2022-12-15T16:59:37.619Z,96.10
2022-12-15T17:02:24.979Z,89.67
2022-12-15T17:04:55.187Z,89.60
2022-12-15T17:07:23.871Z,88.57
2022-12-15T17:09:53.565Z,98.80
2022-12-15T17:12:20.914Z,97.07
2022-12-15T17:14:48.394Z,94.77
2022-12-15T17:17:16.969Z,93.07
2022-12-15T17:20:11.763Z,107.27
2022-12-15T17:22:32.876Z,96.37
2022-12-15T17:25:00.248Z,90.20
2022-12-15T17:27:28.998Z,96.23
2022-12-15T17:29:57.201Z,98.13
2022-12-15T17:32:24.704Z,95.90
2022-12-15T17:34:52.165Z,94.63
2022-12-15T17:37:19.532Z,105.07
2022-12-15T17:39:51.283Z,100.27
2022-12-15T17:42:19.976Z,102.93
2022-12-15T17:44:48.319Z,106.17
2022-12-15T17:47:16.707Z,93.40
2022-12-15T17:49:44.284Z,99.03
2022-12-15T17:52:23.026Z,100.70
2022-12-15T17:54:51.593Z,92.93
2022-12-15T17:57:19.450Z,92.00
2022-12-15T17:59:47.534Z,87.63
2022-12-15T18:02:15.692Z,95.77
2022-12-15T18:04:49.188Z,91.50
2022-12-15T18:07:23.663Z,95.97
2022-12-15T18:09:51.922Z,91.93
2022-12-15T18:12:20.410Z,89.60
2022-12-15T18:14:47.958Z,98.40
2022-12-15T18:17:15.523Z,93.03
2022-12-15T18:19:42.905Z,96.53
2022-12-15T18:22:30.514Z,91.97
2022-12-15T18:24:57.938Z,85.37
2022-12-15T18:27:27.348Z,93.40
2022-12-15T18:29:55.102Z,81.40
2022-12-15T18:32:24.560Z,88.03
2022-12-15T18:34:53.703Z,89.50
2022-12-15T18:37:23.127Z,91.63
2022-12-15T18:39:50.957Z,92.37
2022-12-15T18:42:19.839Z,87.73
2022-12-15T18:44:52.338Z,82.67
2022-12-15T18:47:21.000Z,87.33
2022-12-15T18:49:48.478Z,86.43
2022-12-15T18:52:20.089Z,89.10
2022-12-15T18:54:51.399Z,85.47
2022-12-15T18:57:32.645Z,91.93
2022-12-15T19:00:08.040Z,94.70
2022-12-15T19:02:35.539Z,94.43
2022-12-15T19:05:03.452Z,84.73
2022-12-15T19:07:30.958Z,87.17
2022-12-15T19:09:58.237Z,89.33
2022-12-15T19:12:28.720Z,94.10
2022-12-15T19:14:56.194Z,91.33
2022-12-15T19:17:42.844Z,89.37
2022-12-15T19:20:51.963Z,88.63
2022-12-15T19:23:19.378Z,94.63
2022-12-15T19:25:47.873Z,91.67
2022-12-15T19:28:25.075Z,85.67
2022-12-15T19:30:53.021Z,83.27
2022-12-15T19:33:21.302Z,93.33
2022-12-15T19:35:51.086Z,90.30
2022-12-15T19:38:24.375Z,91.27
2022-12-15T19:40:53.482Z,94.20
2022-12-15T19:43:24.240Z,91.13
2022-12-15T19:45:53.781Z,88.23
2022-12-15T19:48:23.972Z,89.33
2022-12-15T19:50:52.521Z,88.30
2022-12-15T19:53:30.111Z,86.97
2022-12-15T19:55:59.720Z,80.63
2022-12-15T19:58:31.391Z,81.40
2022-12-15T20:01:09.027Z,80.07
2022-12-15T20:03:37.055Z,93.63
2022-12-15T20:06:05.439Z,86.07
2022-12-15T20:08:36.838Z,81.50
2022-12-15T20:11:05.283Z,77.87
2022-12-15T20:13:33.072Z,71.43
2022-12-15T20:16:00.734Z,79.17
2022-12-15T20:18:48.959Z,78.47
2022-12-15T20:21:22.758Z,75.70
2022-12-15T20:23:52.360Z,73.93
2022-12-15T20:26:21.532Z,75.90
2022-12-15T20:28:49.421Z,84.23
2022-12-15T20:31:17.948Z,80.20
2022-12-15T20:33:45.871Z,75.47
2022-12-15T20:36:15.338Z,74.10
2022-12-15T20:38:44.396Z,75.53
2022-12-15T20:41:18.937Z,75.70
2022-12-15T20:43:47.285Z,67.40
2022-12-15T20:46:16.945Z,76.53
2022-12-15T20:48:45.103Z,70.60
2022-12-15T20:51:23.857Z,72.33
2022-12-15T20:53:54.456Z,70.87
2022-12-15T20:56:23.548Z,69.97
2022-12-15T20:58:55.212Z,64.23
2022-12-15T21:01:29.042Z,62.90
2022-12-15T21:03:58.288Z,62.30
2022-12-15T21:06:26.621Z,63.57
2022-12-15T21:08:56.423Z,66.13
2022-12-15T21:11:25.854Z,66.20
2022-12-15T21:13:54.727Z,71.17
2022-12-15T21:16:23.358Z,70.37
2022-12-15T21:19:18.608Z,70.43
2022-12-15T21:21:39.929Z,71.17
2022-12-15T21:24:23.016Z,74.83
2022-12-15T21:26:52.902Z,73.20
2022-12-15T21:29:22.749Z,65.60
2022-12-15T21:31:51.798Z,74.93
2022-12-15T21:34:19.472Z,69.40
2022-12-15T21:36:49.716Z,71.40
2022-12-15T21:39:24.230Z,70.23
2022-12-15T21:41:51.780Z,73.17
2022-12-15T21:44:19.445Z,69.03
2022-12-15T21:46:48.211Z,67.27
2022-12-15T21:49:17.638Z,69.13
2022-12-15T21:51:52.075Z,73.40
2022-12-15T21:54:24.769Z,75.10
2022-12-15T21:56:55.171Z,97.17
2022-12-15T21:59:24.102Z,98.07
2022-12-15T22:01:52.137Z,78.20
2022-12-15T22:04:21.276Z,75.83
2022-12-15T22:06:50.546Z,74.27
2022-12-15T22:09:18.791Z,76.03
2022-12-15T22:11:47.471Z,77.43
2022-12-15T22:14:24.673Z,77.33
2022-12-15T22:16:52.247Z,78.80
2022-12-15T22:19:19.806Z,75.70
2022-12-15T22:21:47.119Z,86.07
2022-12-15T22:24:14.556Z,78.20
2022-12-15T22:26:42.283Z,77.97
2022-12-15T22:29:18.021Z,80.93
2022-12-15T22:31:45.426Z,79.23
2022-12-15T22:34:14.753Z,82.80
2022-12-15T22:36:42.343Z,82.50
2022-12-15T22:39:11.249Z,91.67
2022-12-15T22:41:45.683Z,85.93
2022-12-15T22:44:19.221Z,88.60
2022-12-15T22:46:46.607Z,85.57
2022-12-15T22:49:15.998Z,85.63
